sensor_id;sensor_type;location;lat;lon;timestamp;temperature;humidity
32428;DHT22;18882;50.952;4.366;2022-08-19T00:01:28;20.00;99.90
32428;DHT22;18882;50.952;4.366;2022-08-19T00:03:57;19.90;99.90
32428;DHT22;18882;50.952;4.366;2022-08-19T00:06:22;19.90;99.90
32428;DHT22;18882;50.952;4.366;2022-08-19T00:08:48;19.90;99.90
32428;DHT22;18882;50.952;4.366;2022-08-19T00:11:14;20.00;99.90
32428;DHT22;18882;50.952;4.366;2022-08-19T00:13:39;20.10;99.90
32428;DHT22;18882;50.952;4.366;2022-08-19T00:16:06;20.00;99.90
32428;DHT22;18882;50.952;4.366;2022-08-19T00:18:33;19.90;99.90
32428;DHT22;18882;50.952;4.366;2022-08-19T00:20:58;19.90;99.90
32428;DHT22;18882;50.952;4.366;2022-08-19T00:23:25;19.90;99.90
32428;DHT22;18882;50.952;4.366;2022-08-19T00:25:51;19.90;99.90
32428;DHT22;18882;50.952;4.366;2022-08-19T00:28:17;19.90;99.90
32428;DHT22;18882;50.952;4.366;2022-08-19T00:30:43;19.90;99.90
32428;DHT22;18882;50.952;4.366;2022-08-19T00:33:10;19.90;99.90
32428;DHT22;18882;50.952;4.366;2022-08-19T00:35:36;19.80;99.90
32428;DHT22;18882;50.952;4.366;2022-08-19T00:38:04;19.80;99.90
32428;DHT22;18882;50.952;4.366;2022-08-19T00:40:32;19.80;99.90
32428;DHT22;18882;50.952;4.366;2022-08-19T00:42:57;19.80;99.90
32428;DHT22;18882;50.952;4.366;2022-08-19T00:45:26;19.80;99.90
32428;DHT22;18882;50.952;4.366;2022-08-19T00:47:52;19.70;99.90
32428;DHT22;18882;50.952;4.366;2022-08-19T00:50:20;19.70;99.90
32428;DHT22;18882;50.952;4.366;2022-08-19T00:52:49;19.70;99.90
32428;DHT22;18882;50.952;4.366;2022-08-19T00:55:19;19.70;99.90
32428;DHT22;18882;50.952;4.366;2022-08-19T00:57:56;19.80;99.90
32428;DHT22;18882;50.952;4.366;2022-08-19T01:00:25;19.70;99.90
32428;DHT22;18882;50.952;4.366;2022-08-19T01:02:52;19.80;99.90
32428;DHT22;18882;50.952;4.366;2022-08-19T01:05:25;19.70;99.90
32428;DHT22;18882;50.952;4.366;2022-08-19T01:07:53;19.70;99.90
32428;DHT22;18882;50.952;4.366;2022-08-19T01:10:23;19.60;99.90
32428;DHT22;18882;50.952;4.366;2022-08-19T01:12:50;19.60;99.90
32428;DHT22;18882;50.952;4.366;2022-08-19T01:15:19;19.50;99.90
32428;DHT22;18882;50.952;4.366;2022-08-19T01:17:46;19.50;99.90
32428;DHT22;18882;50.952;4.366;2022-08-19T01:20:16;19.40;99.90
32428;DHT22;18882;50.952;4.366;2022-08-19T01:22:54;19.40;99.90
32428;DHT22;18882;50.952;4.366;2022-08-19T01:25:24;19.40;99.90
32428;DHT22;18882;50.952;4.366;2022-08-19T01:27:52;19.40;99.90
32428;DHT22;18882;50.952;4.366;2022-08-19T01:30:24;19.40;99.90
32428;DHT22;18882;50.952;4.366;2022-08-19T01:32:52;19.40;99.90
32428;DHT22;18882;50.952;4.366;2022-08-19T01:35:18;19.50;99.90
32428;DHT22;18882;50.952;4.366;2022-08-19T01:37:51;19.50;99.90
32428;DHT22;18882;50.952;4.366;2022-08-19T01:40:19;19.30;99.90
32428;DHT22;18882;50.952;4.366;2022-08-19T01:42:46;19.20;99.90
32428;DHT22;18882;50.952;4.366;2022-08-19T01:45:14;19.20;99.90
32428;DHT22;18882;50.952;4.366;2022-08-19T01:47:40;19.20;99.90
32428;DHT22;18882;50.952;4.366;2022-08-19T01:50:10;19.20;99.90
32428;DHT22;18882;50.952;4.366;2022-08-19T01:52:38;19.40;99.90
32428;DHT22;18882;50.952;4.366;2022-08-19T01:55:07;19.40;99.90
32428;DHT22;18882;50.952;4.366;2022-08-19T01:57:33;19.30;99.90
32428;DHT22;18882;50.952;4.366;2022-08-19T02:00:00;19.20;99.90
32428;DHT22;18882;50.952;4.366;2022-08-19T02:02:27;19.20;99.90
32428;DHT22;18882;50.952;4.366;2022-08-19T02:04:53;19.00;99.90
32428;DHT22;18882;50.952;4.366;2022-08-19T02:07:20;19.10;99.90
32428;DHT22;18882;50.952;4.366;2022-08-19T02:09:47;19.10;99.90
32428;DHT22;18882;50.952;4.366;2022-08-19T02:12:13;19.10;99.90
32428;DHT22;18882;50.952;4.366;2022-08-19T02:14:39;19.10;99.90
32428;DHT22;18882;50.952;4.366;2022-08-19T02:17:05;19.10;99.90
32428;DHT22;18882;50.952;4.366;2022-08-19T02:19:31;19.10;99.90
32428;DHT22;18882;50.952;4.366;2022-08-19T02:22:00;19.00;99.90
32428;DHT22;18882;50.952;4.366;2022-08-19T02:24:27;18.90;99.90
32428;DHT22;18882;50.952;4.366;2022-08-19T02:26:53;18.90;99.90
32428;DHT22;18882;50.952;4.366;2022-08-19T02:29:19;19.00;99.90
32428;DHT22;18882;50.952;4.366;2022-08-19T02:31:44;18.90;99.90
32428;DHT22;18882;50.952;4.366;2022-08-19T02:34:10;18.90;99.90
32428;DHT22;18882;50.952;4.366;2022-08-19T02:36:36;18.90;99.90
32428;DHT22;18882;50.952;4.366;2022-08-19T02:39:02;18.90;99.90
32428;DHT22;18882;50.952;4.366;2022-08-19T02:41:30;18.90;99.90
32428;DHT22;18882;50.952;4.366;2022-08-19T02:43:57;18.90;99.90
32428;DHT22;18882;50.952;4.366;2022-08-19T02:46:28;18.90;99.90
32428;DHT22;18882;50.952;4.366;2022-08-19T02:48:57;18.90;99.90
32428;DHT22;18882;50.952;4.366;2022-08-19T02:51:26;18.90;99.90
32428;DHT22;18882;50.952;4.366;2022-08-19T02:53:52;18.80;99.90
32428;DHT22;18882;50.952;4.366;2022-08-19T02:56:18;18.80;99.90
32428;DHT22;18882;50.952;4.366;2022-08-19T02:58:43;18.90;99.90
32428;DHT22;18882;50.952;4.366;2022-08-19T03:01:10;18.80;99.90
32428;DHT22;18882;50.952;4.366;2022-08-19T03:03:37;18.70;99.90
32428;DHT22;18882;50.952;4.366;2022-08-19T03:06:09;18.70;99.90
32428;DHT22;18882;50.952;4.366;2022-08-19T03:08:37;18.60;99.90
32428;DHT22;18882;50.952;4.366;2022-08-19T03:11:03;18.50;99.90
32428;DHT22;18882;50.952;4.366;2022-08-19T03:13:29;18.40;99.90
32428;DHT22;18882;50.952;4.366;2022-08-19T03:15:55;18.30;99.90
32428;DHT22;18882;50.952;4.366;2022-08-19T03:18:21;18.30;99.90
32428;DHT22;18882;50.952;4.366;2022-08-19T03:20:51;18.30;99.90
32428;DHT22;18882;50.952;4.366;2022-08-19T03:23:20;18.20;99.90
32428;DHT22;18882;50.952;4.366;2022-08-19T03:25:48;18.20;99.90
32428;DHT22;18882;50.952;4.366;2022-08-19T03:28:16;18.20;99.90
32428;DHT22;18882;50.952;4.366;2022-08-19T03:30:43;18.30;99.90
32428;DHT22;18882;50.952;4.366;2022-08-19T03:33:09;18.30;99.90
32428;DHT22;18882;50.952;4.366;2022-08-19T03:35:36;18.20;99.90
32428;DHT22;18882;50.952;4.366;2022-08-19T03:38:06;18.20;99.90
32428;DHT22;18882;50.952;4.366;2022-08-19T03:40:32;18.20;99.90
32428;DHT22;18882;50.952;4.366;2022-08-19T03:43:01;18.10;99.90
32428;DHT22;18882;50.952;4.366;2022-08-19T03:45:27;18.10;99.90
32428;DHT22;18882;50.952;4.366;2022-08-19T03:47:53;18.00;99.90
32428;DHT22;18882;50.952;4.366;2022-08-19T03:50:20;18.10;99.90
32428;DHT22;18882;50.952;4.366;2022-08-19T03:52:50;18.10;99.90
32428;DHT22;18882;50.952;4.366;2022-08-19T03:55:17;18.00;99.90
32428;DHT22;18882;50.952;4.366;2022-08-19T03:57:42;17.90;99.90
32428;DHT22;18882;50.952;4.366;2022-08-19T04:00:09;17.90;99.90
32428;DHT22;18882;50.952;4.366;2022-08-19T04:02:35;17.90;99.90
32428;DHT22;18882;50.952;4.366;2022-08-19T04:05:01;17.90;99.90
32428;DHT22;18882;50.952;4.366;2022-08-19T04:07:26;17.80;99.90
32428;DHT22;18882;50.952;4.366;2022-08-19T04:09:52;17.80;99.90
32428;DHT22;18882;50.952;4.366;2022-08-19T04:12:18;17.80;99.90
32428;DHT22;18882;50.952;4.366;2022-08-19T04:14:46;17.80;99.90
32428;DHT22;18882;50.952;4.366;2022-08-19T04:17:12;17.80;99.90
32428;DHT22;18882;50.952;4.366;2022-08-19T04:19:38;17.80;99.90
32428;DHT22;18882;50.952;4.366;2022-08-19T04:22:04;17.70;99.90
32428;DHT22;18882;50.952;4.366;2022-08-19T04:24:30;17.70;99.90
32428;DHT22;18882;50.952;4.366;2022-08-19T04:26:56;17.80;99.90
32428;DHT22;18882;50.952;4.366;2022-08-19T04:29:24;17.70;99.90
32428;DHT22;18882;50.952;4.366;2022-08-19T04:31:51;17.80;99.90
32428;DHT22;18882;50.952;4.366;2022-08-19T04:34:19;17.70;99.90
32428;DHT22;18882;50.952;4.366;2022-08-19T04:36:47;17.70;99.90
32428;DHT22;18882;50.952;4.366;2022-08-19T04:39:18;17.70;99.90
32428;DHT22;18882;50.952;4.366;2022-08-19T04:41:46;17.60;99.90
32428;DHT22;18882;50.952;4.366;2022-08-19T04:44:34;17.50;99.90
32428;DHT22;18882;50.952;4.366;2022-08-19T04:47:01;17.50;99.90
32428;DHT22;18882;50.952;4.366;2022-08-19T04:49:27;17.40;99.90
32428;DHT22;18882;50.952;4.366;2022-08-19T04:51:54;17.50;99.90
32428;DHT22;18882;50.952;4.366;2022-08-19T04:54:21;17.40;99.90
32428;DHT22;18882;50.952;4.366;2022-08-19T04:56:50;17.50;99.90
32428;DHT22;18882;50.952;4.366;2022-08-19T04:59:18;17.50;99.90
32428;DHT22;18882;50.952;4.366;2022-08-19T05:01:45;17.40;99.90
32428;DHT22;18882;50.952;4.366;2022-08-19T05:04:16;17.40;99.90
32428;DHT22;18882;50.952;4.366;2022-08-19T05:06:42;17.40;99.90
32428;DHT22;18882;50.952;4.366;2022-08-19T05:09:08;17.40;99.90
32428;DHT22;18882;50.952;4.366;2022-08-19T05:11:36;17.50;99.90
32428;DHT22;18882;50.952;4.366;2022-08-19T05:14:09;17.50;99.90
32428;DHT22;18882;50.952;4.366;2022-08-19T05:16:35;17.40;99.90
32428;DHT22;18882;50.952;4.366;2022-08-19T05:19:00;17.30;99.90
32428;DHT22;18882;50.952;4.366;2022-08-19T05:21:45;17.40;99.90
32428;DHT22;18882;50.952;4.366;2022-08-19T05:24:30;17.40;99.90
32428;DHT22;18882;50.952;4.366;2022-08-19T05:26:56;17.50;99.90
32428;DHT22;18882;50.952;4.366;2022-08-19T05:29:24;17.60;99.90
32428;DHT22;18882;50.952;4.366;2022-08-19T05:31:50;17.50;99.90
32428;DHT22;18882;50.952;4.366;2022-08-19T05:34:18;17.50;99.90
32428;DHT22;18882;50.952;4.366;2022-08-19T05:36:46;17.60;99.90
32428;DHT22;18882;50.952;4.366;2022-08-19T05:39:16;17.70;99.90
32428;DHT22;18882;50.952;4.366;2022-08-19T05:41:44;17.80;99.90
32428;DHT22;18882;50.952;4.366;2022-08-19T05:44:10;17.80;99.90
32428;DHT22;18882;50.952;4.366;2022-08-19T05:46:37;17.80;99.90
32428;DHT22;18882;50.952;4.366;2022-08-19T05:49:06;18.00;99.90
32428;DHT22;18882;50.952;4.366;2022-08-19T05:51:32;18.10;99.90
32428;DHT22;18882;50.952;4.366;2022-08-19T05:54:00;18.20;99.90
32428;DHT22;18882;50.952;4.366;2022-08-19T05:56:26;18.30;99.90
32428;DHT22;18882;50.952;4.366;2022-08-19T05:58:52;18.40;99.90
32428;DHT22;18882;50.952;4.366;2022-08-19T06:01:20;18.50;99.90
32428;DHT22;18882;50.952;4.366;2022-08-19T06:03:46;18.50;99.90
32428;DHT22;18882;50.952;4.366;2022-08-19T06:06:16;18.40;99.90
32428;DHT22;18882;50.952;4.366;2022-08-19T06:08:42;18.40;99.90
32428;DHT22;18882;50.952;4.366;2022-08-19T06:11:17;18.50;99.90
32428;DHT22;18882;50.952;4.366;2022-08-19T06:13:44;18.50;99.90
32428;DHT22;18882;50.952;4.366;2022-08-19T06:16:15;18.50;99.90
32428;DHT22;18882;50.952;4.366;2022-08-19T06:18:48;18.50;99.90
32428;DHT22;18882;50.952;4.366;2022-08-19T06:21:18;18.60;99.90
32428;DHT22;18882;50.952;4.366;2022-08-19T06:23:44;18.80;99.90
32428;DHT22;18882;50.952;4.366;2022-08-19T06:26:15;18.90;99.90
32428;DHT22;18882;50.952;4.366;2022-08-19T06:28:41;19.00;99.90
32428;DHT22;18882;50.952;4.366;2022-08-19T06:31:10;19.10;99.90
32428;DHT22;18882;50.952;4.366;2022-08-19T06:33:38;19.30;99.90
32428;DHT22;18882;50.952;4.366;2022-08-19T06:36:04;19.50;99.90
32428;DHT22;18882;50.952;4.366;2022-08-19T06:38:30;19.70;99.90
32428;DHT22;18882;50.952;4.366;2022-08-19T06:41:04;19.80;99.90
32428;DHT22;18882;50.952;4.366;2022-08-19T06:43:30;19.80;99.90
32428;DHT22;18882;50.952;4.366;2022-08-19T06:45:56;19.90;99.90
32428;DHT22;18882;50.952;4.366;2022-08-19T06:48:22;20.00;99.90
32428;DHT22;18882;50.952;4.366;2022-08-19T06:50:47;20.20;99.90
32428;DHT22;18882;50.952;4.366;2022-08-19T06:53:15;20.30;99.90
32428;DHT22;18882;50.952;4.366;2022-08-19T06:55:41;20.40;99.90
32428;DHT22;18882;50.952;4.366;2022-08-19T06:58:06;20.30;99.90
32428;DHT22;18882;50.952;4.366;2022-08-19T07:00:32;20.30;99.90
32428;DHT22;18882;50.952;4.366;2022-08-19T07:02:58;20.40;99.90
32428;DHT22;18882;50.952;4.366;2022-08-19T07:05:24;20.50;99.90
32428;DHT22;18882;50.952;4.366;2022-08-19T07:07:50;20.40;99.90
32428;DHT22;18882;50.952;4.366;2022-08-19T07:10:16;20.50;99.90
32428;DHT22;18882;50.952;4.366;2022-08-19T07:12:41;20.60;99.90
32428;DHT22;18882;50.952;4.366;2022-08-19T07:15:07;20.60;99.90
32428;DHT22;18882;50.952;4.366;2022-08-19T07:17:36;20.60;99.90
32428;DHT22;18882;50.952;4.366;2022-08-19T07:20:06;20.60;99.90
32428;DHT22;18882;50.952;4.366;2022-08-19T07:22:33;20.60;99.90
32428;DHT22;18882;50.952;4.366;2022-08-19T07:24:59;20.70;99.90
32428;DHT22;18882;50.952;4.366;2022-08-19T07:27:25;20.80;99.90
32428;DHT22;18882;50.952;4.366;2022-08-19T07:29:52;20.90;99.90
32428;DHT22;18882;50.952;4.366;2022-08-19T07:32:18;21.00;99.90
32428;DHT22;18882;50.952;4.366;2022-08-19T07:34:44;21.00;99.90
32428;DHT22;18882;50.952;4.366;2022-08-19T07:37:10;21.00;99.90
32428;DHT22;18882;50.952;4.366;2022-08-19T07:39:37;21.10;99.90
32428;DHT22;18882;50.952;4.366;2022-08-19T07:42:07;21.20;99.90
32428;DHT22;18882;50.952;4.366;2022-08-19T07:44:33;21.20;99.90
32428;DHT22;18882;50.952;4.366;2022-08-19T07:46:59;21.30;99.90
32428;DHT22;18882;50.952;4.366;2022-08-19T07:49:25;21.40;99.90
32428;DHT22;18882;50.952;4.366;2022-08-19T07:51:57;21.60;99.90
32428;DHT22;18882;50.952;4.366;2022-08-19T07:54:24;21.50;99.90
32428;DHT22;18882;50.952;4.366;2022-08-19T07:56:50;21.40;99.90
32428;DHT22;18882;50.952;4.366;2022-08-19T07:59:17;21.40;99.90
32428;DHT22;18882;50.952;4.366;2022-08-19T08:01:43;21.40;99.90
32428;DHT22;18882;50.952;4.366;2022-08-19T08:04:09;21.60;99.90
32428;DHT22;18882;50.952;4.366;2022-08-19T08:06:53;21.90;99.90
32428;DHT22;18882;50.952;4.366;2022-08-19T08:09:39;22.20;99.90
32428;DHT22;18882;50.952;4.366;2022-08-19T08:12:10;22.40;99.90
32428;DHT22;18882;50.952;4.366;2022-08-19T08:14:51;22.40;99.90
32428;DHT22;18882;50.952;4.366;2022-08-19T08:17:19;22.60;99.90
32428;DHT22;18882;50.952;4.366;2022-08-19T08:19:46;22.60;99.90
32428;DHT22;18882;50.952;4.366;2022-08-19T08:22:15;22.60;99.90
32428;DHT22;18882;50.952;4.366;2022-08-19T08:25:21;22.80;99.90
32428;DHT22;18882;50.952;4.366;2022-08-19T08:27:48;22.70;99.90
32428;DHT22;18882;50.952;4.366;2022-08-19T08:30:23;22.50;99.90
32428;DHT22;18882;50.952;4.366;2022-08-19T08:32:50;22.50;99.90
32428;DHT22;18882;50.952;4.366;2022-08-19T08:35:19;22.50;99.90
32428;DHT22;18882;50.952;4.366;2022-08-19T08:37:46;22.60;99.90
32428;DHT22;18882;50.952;4.366;2022-08-19T08:46:17;22.70;99.90
32428;DHT22;18882;50.952;4.366;2022-08-19T08:48:51;22.60;99.90
32428;DHT22;18882;50.952;4.366;2022-08-19T08:51:41;22.60;99.90
32428;DHT22;18882;50.952;4.366;2022-08-19T08:54:10;22.70;99.90
32428;DHT22;18882;50.952;4.366;2022-08-19T08:56:38;22.70;99.90
32428;DHT22;18882;50.952;4.366;2022-08-19T08:59:12;22.70;99.90
32428;DHT22;18882;50.952;4.366;2022-08-19T09:01:42;22.70;99.90
32428;DHT22;18882;50.952;4.366;2022-08-19T09:04:09;22.80;99.90
32428;DHT22;18882;50.952;4.366;2022-08-19T09:06:53;22.90;99.90
32428;DHT22;18882;50.952;4.366;2022-08-19T09:09:32;22.90;99.90
32428;DHT22;18882;50.952;4.366;2022-08-19T09:14:55;22.90;99.90
32428;DHT22;18882;50.952;4.366;2022-08-19T09:17:28;22.90;99.90
32428;DHT22;18882;50.952;4.366;2022-08-19T09:20:21;23.00;99.90
32428;DHT22;18882;50.952;4.366;2022-08-19T09:22:47;23.00;99.90
32428;DHT22;18882;50.952;4.366;2022-08-19T09:25:17;23.10;99.90
32428;DHT22;18882;50.952;4.366;2022-08-19T09:27:44;23.20;99.90
32428;DHT22;18882;50.952;4.366;2022-08-19T09:30:21;23.20;99.90
32428;DHT22;18882;50.952;4.366;2022-08-19T09:32:48;23.30;99.90
32428;DHT22;18882;50.952;4.366;2022-08-19T09:35:14;23.30;99.90
32428;DHT22;18882;50.952;4.366;2022-08-19T09:37:41;23.30;99.90
32428;DHT22;18882;50.952;4.366;2022-08-19T09:40:09;23.30;99.90
32428;DHT22;18882;50.952;4.366;2022-08-19T09:42:35;23.40;99.90
32428;DHT22;18882;50.952;4.366;2022-08-19T09:45:01;23.40;99.90
32428;DHT22;18882;50.952;4.366;2022-08-19T09:47:28;23.50;99.90
32428;DHT22;18882;50.952;4.366;2022-08-19T09:49:53;23.60;99.90
32428;DHT22;18882;50.952;4.366;2022-08-19T09:52:22;23.60;99.90
32428;DHT22;18882;50.952;4.366;2022-08-19T09:54:52;23.50;99.90
32428;DHT22;18882;50.952;4.366;2022-08-19T09:57:18;23.50;99.90
32428;DHT22;18882;50.952;4.366;2022-08-19T09:59:44;23.50;99.90
32428;DHT22;18882;50.952;4.366;2022-08-19T10:02:10;23.50;99.90
32428;DHT22;18882;50.952;4.366;2022-08-19T10:04:37;23.70;99.90
32428;DHT22;18882;50.952;4.366;2022-08-19T10:07:21;23.80;99.90
32428;DHT22;18882;50.952;4.366;2022-08-19T10:09:47;23.80;99.90
32428;DHT22;18882;50.952;4.366;2022-08-19T10:12:12;23.80;99.90
32428;DHT22;18882;50.952;4.366;2022-08-19T10:14:39;23.80;99.90
32428;DHT22;18882;50.952;4.366;2022-08-19T10:17:07;24.00;99.90
32428;DHT22;18882;50.952;4.366;2022-08-19T10:19:33;24.20;99.90
32428;DHT22;18882;50.952;4.366;2022-08-19T10:22:07;24.40;99.90
32428;DHT22;18882;50.952;4.366;2022-08-19T10:24:36;24.20;99.90
32428;DHT22;18882;50.952;4.366;2022-08-19T10:27:02;24.20;99.90
32428;DHT22;18882;50.952;4.366;2022-08-19T10:29:31;24.40;99.90
32428;DHT22;18882;50.952;4.366;2022-08-19T10:32:01;24.60;99.90
32428;DHT22;18882;50.952;4.366;2022-08-19T10:34:29;24.60;99.90
32428;DHT22;18882;50.952;4.366;2022-08-19T10:36:56;24.70;99.90
32428;DHT22;18882;50.952;4.366;2022-08-19T10:39:25;24.70;99.90
32428;DHT22;18882;50.952;4.366;2022-08-19T10:42:13;24.70;99.90
32428;DHT22;18882;50.952;4.366;2022-08-19T10:44:42;24.80;99.90
32428;DHT22;18882;50.952;4.366;2022-08-19T10:47:14;24.70;99.90
32428;DHT22;18882;50.952;4.366;2022-08-19T10:49:40;24.60;99.90
32428;DHT22;18882;50.952;4.366;2022-08-19T10:52:49;24.70;99.90
32428;DHT22;18882;50.952;4.366;2022-08-19T10:55:15;24.80;99.90
32428;DHT22;18882;50.952;4.366;2022-08-19T10:57:59;24.70;99.90
32428;DHT22;18882;50.952;4.366;2022-08-19T11:00:41;24.80;99.90
32428;DHT22;18882;50.952;4.366;2022-08-19T11:03:12;24.70;99.90
32428;DHT22;18882;50.952;4.366;2022-08-19T11:05:42;24.60;99.90
32428;DHT22;18882;50.952;4.366;2022-08-19T11:08:14;24.50;99.90
32428;DHT22;18882;50.952;4.366;2022-08-19T11:10:42;24.50;99.90
32428;DHT22;18882;50.952;4.366;2022-08-19T11:13:12;24.50;99.90
32428;DHT22;18882;50.952;4.366;2022-08-19T11:16:15;24.40;99.90
32428;DHT22;18882;50.952;4.366;2022-08-19T11:18:48;24.20;99.90
32428;DHT22;18882;50.952;4.366;2022-08-19T11:21:29;24.00;99.90
32428;DHT22;18882;50.952;4.366;2022-08-19T11:23:58;24.00;99.90
32428;DHT22;18882;50.952;4.366;2022-08-19T11:26:28;24.10;99.90
32428;DHT22;18882;50.952;4.366;2022-08-19T11:28:57;24.30;99.90
32428;DHT22;18882;50.952;4.366;2022-08-19T11:31:30;24.50;99.90
32428;DHT22;18882;50.952;4.366;2022-08-19T11:33:57;24.80;99.90
32428;DHT22;18882;50.952;4.366;2022-08-19T11:36:26;25.00;99.90
32428;DHT22;18882;50.952;4.366;2022-08-19T11:38:53;25.00;99.90
32428;DHT22;18882;50.952;4.366;2022-08-19T11:41:34;25.00;99.90
32428;DHT22;18882;50.952;4.366;2022-08-19T11:44:00;25.00;99.90
32428;DHT22;18882;50.952;4.366;2022-08-19T11:46:29;25.00;99.90
32428;DHT22;18882;50.952;4.366;2022-08-19T11:49:17;25.00;99.90
32428;DHT22;18882;50.952;4.366;2022-08-19T11:51:45;25.10;99.90
32428;DHT22;18882;50.952;4.366;2022-08-19T11:54:12;25.30;99.90
32428;DHT22;18882;50.952;4.366;2022-08-19T11:56:39;25.40;99.90
32428;DHT22;18882;50.952;4.366;2022-08-19T11:59:05;25.50;99.90
32428;DHT22;18882;50.952;4.366;2022-08-19T12:01:31;25.60;99.90
32428;DHT22;18882;50.952;4.366;2022-08-19T12:03:57;25.70;99.90
32428;DHT22;18882;50.952;4.366;2022-08-19T12:06:27;25.90;99.90
32428;DHT22;18882;50.952;4.366;2022-08-19T12:08:57;26.10;99.90
32428;DHT22;18882;50.952;4.366;2022-08-19T12:11:24;26.10;99.90
32428;DHT22;18882;50.952;4.366;2022-08-19T12:13:50;26.10;99.90
32428;DHT22;18882;50.952;4.366;2022-08-19T12:16:26;26.20;99.90
32428;DHT22;18882;50.952;4.366;2022-08-19T12:18:54;26.00;99.90
32428;DHT22;18882;50.952;4.366;2022-08-19T12:21:24;26.20;99.90
32428;DHT22;18882;50.952;4.366;2022-08-19T12:23:50;26.30;99.90
32428;DHT22;18882;50.952;4.366;2022-08-19T12:26:17;26.30;99.90
32428;DHT22;18882;50.952;4.366;2022-08-19T12:28:43;26.30;99.90
32428;DHT22;18882;50.952;4.366;2022-08-19T12:31:10;26.50;99.90
32428;DHT22;18882;50.952;4.366;2022-08-19T12:33:39;26.60;99.90
32428;DHT22;18882;50.952;4.366;2022-08-19T12:36:10;26.70;99.90
32428;DHT22;18882;50.952;4.366;2022-08-19T12:38:36;26.70;99.90
32428;DHT22;18882;50.952;4.366;2022-08-19T12:41:03;26.70;99.90
32428;DHT22;18882;50.952;4.366;2022-08-19T12:43:34;26.50;99.90
32428;DHT22;18882;50.952;4.366;2022-08-19T12:46:07;26.50;99.90
32428;DHT22;18882;50.952;4.366;2022-08-19T12:48:34;26.60;99.90
32428;DHT22;18882;50.952;4.366;2022-08-19T12:51:12;26.70;99.90
32428;DHT22;18882;50.952;4.366;2022-08-19T12:53:42;26.70;99.90
32428;DHT22;18882;50.952;4.366;2022-08-19T12:56:10;26.70;99.90
32428;DHT22;18882;50.952;4.366;2022-08-19T12:58:36;26.60;99.90
32428;DHT22;18882;50.952;4.366;2022-08-19T13:01:11;26.70;99.90
32428;DHT22;18882;50.952;4.366;2022-08-19T13:03:37;26.80;99.90
32428;DHT22;18882;50.952;4.366;2022-08-19T13:06:03;26.80;99.90
32428;DHT22;18882;50.952;4.366;2022-08-19T13:08:28;27.00;99.90
32428;DHT22;18882;50.952;4.366;2022-08-19T13:10:54;27.00;99.90
32428;DHT22;18882;50.952;4.366;2022-08-19T13:13:21;26.90;99.90
32428;DHT22;18882;50.952;4.366;2022-08-19T13:15:47;27.00;99.90
32428;DHT22;18882;50.952;4.366;2022-08-19T13:18:13;26.80;99.90
32428;DHT22;18882;50.952;4.366;2022-08-19T13:20:40;26.80;99.90
32428;DHT22;18882;50.952;4.366;2022-08-19T13:23:09;26.90;99.90
32428;DHT22;18882;50.952;4.366;2022-08-19T13:25:36;27.00;99.90
32428;DHT22;18882;50.952;4.366;2022-08-19T13:28:03;27.10;99.90
32428;DHT22;18882;50.952;4.366;2022-08-19T13:30:28;26.90;99.90
32428;DHT22;18882;50.952;4.366;2022-08-19T13:33:13;26.90;99.90
32428;DHT22;18882;50.952;4.366;2022-08-19T13:35:46;27.00;99.90
32428;DHT22;18882;50.952;4.366;2022-08-19T13:38:15;26.90;99.90
32428;DHT22;18882;50.952;4.366;2022-08-19T13:40:42;26.90;99.90
32428;DHT22;18882;50.952;4.366;2022-08-19T13:43:09;26.80;99.90
32428;DHT22;18882;50.952;4.366;2022-08-19T13:45:35;26.70;99.90
32428;DHT22;18882;50.952;4.366;2022-08-19T13:48:04;26.60;99.90
32428;DHT22;18882;50.952;4.366;2022-08-19T13:50:42;26.50;99.90
32428;DHT22;18882;50.952;4.366;2022-08-19T13:53:09;26.50;99.90
32428;DHT22;18882;50.952;4.366;2022-08-19T13:55:37;26.70;99.90
32428;DHT22;18882;50.952;4.366;2022-08-19T13:58:03;26.80;99.90
32428;DHT22;18882;50.952;4.366;2022-08-19T14:00:33;26.80;99.90
32428;DHT22;18882;50.952;4.366;2022-08-19T14:02:59;26.80;99.90
32428;DHT22;18882;50.952;4.366;2022-08-19T14:05:26;26.80;99.90
32428;DHT22;18882;50.952;4.366;2022-08-19T14:07:53;26.70;99.90
32428;DHT22;18882;50.952;4.366;2022-08-19T14:10:19;26.70;99.90
32428;DHT22;18882;50.952;4.366;2022-08-19T14:12:45;26.60;99.90
32428;DHT22;18882;50.952;4.366;2022-08-19T14:15:11;26.40;99.90
32428;DHT22;18882;50.952;4.366;2022-08-19T14:17:41;26.30;99.90
32428;DHT22;18882;50.952;4.366;2022-08-19T14:20:09;26.10;99.90
32428;DHT22;18882;50.952;4.366;2022-08-19T14:22:38;25.80;99.90
32428;DHT22;18882;50.952;4.366;2022-08-19T14:25:06;25.40;99.90
32428;DHT22;18882;50.952;4.366;2022-08-19T14:27:37;25.20;99.90
32428;DHT22;18882;50.952;4.366;2022-08-19T14:30:05;25.00;99.90
32428;DHT22;18882;50.952;4.366;2022-08-19T14:32:32;24.90;99.90
32428;DHT22;18882;50.952;4.366;2022-08-19T14:34:58;24.60;99.90
32428;DHT22;18882;50.952;4.366;2022-08-19T14:37:24;24.40;99.90
32428;DHT22;18882;50.952;4.366;2022-08-19T14:39:50;24.30;99.90
32428;DHT22;18882;50.952;4.366;2022-08-19T14:42:15;24.10;99.90
32428;DHT22;18882;50.952;4.366;2022-08-19T14:44:42;24.10;99.90
32428;DHT22;18882;50.952;4.366;2022-08-19T14:47:08;24.10;99.90
32428;DHT22;18882;50.952;4.366;2022-08-19T14:49:34;24.30;99.90
32428;DHT22;18882;50.952;4.366;2022-08-19T14:52:00;24.40;99.90
32428;DHT22;18882;50.952;4.366;2022-08-19T14:54:26;24.60;99.90
32428;DHT22;18882;50.952;4.366;2022-08-19T14:56:51;24.80;99.90
32428;DHT22;18882;50.952;4.366;2022-08-19T14:59:17;24.90;99.90
32428;DHT22;18882;50.952;4.366;2022-08-19T15:01:43;24.90;99.90
32428;DHT22;18882;50.952;4.366;2022-08-19T15:04:09;24.90;99.90
32428;DHT22;18882;50.952;4.366;2022-08-19T15:06:34;25.00;99.90
32428;DHT22;18882;50.952;4.366;2022-08-19T15:09:01;25.00;99.90
32428;DHT22;18882;50.952;4.366;2022-08-19T15:11:28;25.00;99.90
32428;DHT22;18882;50.952;4.366;2022-08-19T15:13:56;25.20;99.90
32428;DHT22;18882;50.952;4.366;2022-08-19T15:16:22;25.20;99.90
32428;DHT22;18882;50.952;4.366;2022-08-19T15:18:54;25.30;99.90
32428;DHT22;18882;50.952;4.366;2022-08-19T15:21:21;25.40;99.90
32428;DHT22;18882;50.952;4.366;2022-08-19T15:23:48;25.40;99.90
32428;DHT22;18882;50.952;4.366;2022-08-19T15:26:15;25.50;99.90
32428;DHT22;18882;50.952;4.366;2022-08-19T15:28:42;25.50;99.90
32428;DHT22;18882;50.952;4.366;2022-08-19T15:31:08;25.60;99.90
32428;DHT22;18882;50.952;4.366;2022-08-19T15:33:35;25.60;99.90
32428;DHT22;18882;50.952;4.366;2022-08-19T15:36:06;25.50;99.90
32428;DHT22;18882;50.952;4.366;2022-08-19T15:38:33;25.30;99.90
32428;DHT22;18882;50.952;4.366;2022-08-19T15:41:01;25.20;99.90
32428;DHT22;18882;50.952;4.366;2022-08-19T15:43:48;25.10;99.90
32428;DHT22;18882;50.952;4.366;2022-08-19T15:46:20;25.20;99.90
32428;DHT22;18882;50.952;4.366;2022-08-19T15:48:50;25.20;99.90